Time;durP1;ratioP1;P1;durP2;ratioP2;P2;SDS_P1;SDS_P2;PMS_P1;PMS_P2;Temp;Humidity;BMP_temperature;BMP_pressure;BME280_temperature;BME280_humidity;BME280_pressure;Samples;Min_cycle;Max_cycle;Signal;HPM_P1;HPM_P2
2021/07/02 00:00:55;;;;;;;;;;;22.40;54.10;;;;;;516304;230;1024;-73
2021/07/02 00:02:56;;;;;;;;;;;22.40;54.10;;;;;;516284;231;1133;-73
2021/07/02 00:04:57;;;;;;;;;;;22.40;54.10;;;;;;516372;230;1018;-73
2021/07/02 00:06:59;;;;;;;;;;;22.60;53.90;;;;;;516363;230;1019;-73
2021/07/02 00:09:00;;;;;;;;;;;22.50;53.80;;;;;;516326;230;1181;-73
2021/07/02 00:11:01;;;;;;;;;;;22.50;53.90;;;;;;516410;230;1046;-72
2021/07/02 00:13:03;;;;;;;;;;;22.40;54.00;;;;;;516337;230;1028;-73
2021/07/02 00:15:04;;;;;;;;;;;22.30;54.20;;;;;;516310;231;1010;-73
2021/07/02 00:17:05;;;;;;;;;;;22.40;54.10;;;;;;516304;230;951;-73
2021/07/02 00:19:07;;;;;;;;;;;22.40;54.20;;;;;;516319;230;2145;-73
2021/07/02 00:21:08;;;;;;;;;;;22.40;54.20;;;;;;516378;230;1062;-73
2021/07/02 00:23:09;;;;;;;;;;;22.40;54.20;;;;;;516346;230;1044;-73
2021/07/02 00:25:11;;;;;;;;;;;22.40;54.10;;;;;;516248;231;1065;-73
2021/07/02 00:27:12;;;;;;;;;;;22.40;54.10;;;;;;516230;231;1115;-73
2021/07/02 00:29:13;;;;;;;;;;;22.40;54.20;;;;;;516328;230;1003;-73
2021/07/02 00:31:15;;;;;;;;;;;22.40;54.00;;;;;;516480;230;1189;-73
2021/07/02 00:33:16;;;;;;;;;;;22.40;54.00;;;;;;516351;230;1147;-73
2021/07/02 00:35:17;;;;;;;;;;;22.50;54.00;;;;;;516416;230;962;-73
2021/07/02 00:37:19;;;;;;;;;;;22.50;54.00;;;;;;516257;231;2137;-73
2021/07/02 00:39:20;;;;;;;;;;;22.50;53.90;;;;;;516282;231;995;-73
2021/07/02 00:41:22;;;;;;;;;;;22.40;54.00;;;;;;516202;231;1149;-73
2021/07/02 00:43:23;;;;;;;;;;;22.50;54.00;;;;;;516337;230;1169;-73
2021/07/02 00:45:24;;;;;;;;;;;22.50;54.00;;;;;;516392;230;1039;-73
2021/07/02 00:47:25;;;;;;;;;;;22.50;53.90;;;;;;516236;231;1275;-73
2021/07/02 00:49:27;;;;;;;;;;;22.50;54.00;;;;;;516306;230;1188;-73
2021/07/02 00:51:30;;;;;;;;;;;22.50;54.00;;;;;;516292;230;1237;-73
2021/07/02 00:53:29;;;;;;;;;;;22.40;54.00;;;;;;516156;230;1275;-73
2021/07/02 00:55:31;;;;;;;;;;;22.50;54.00;;;;;;516391;230;999;-73
2021/07/02 00:57:32;;;;;;;;;;;22.40;54.00;;;;;;516366;230;2133;-73
2021/07/02 00:59:33;;;;;;;;;;;22.40;54.10;;;;;;516296;231;1031;-73
2021/07/02 01:01:35;;;;;;;;;;;22.40;54.10;;;;;;516312;231;1038;-73
2021/07/02 01:03:36;;;;;;;;;;;22.40;54.10;;;;;;516303;231;1307;-73
2021/07/02 01:05:37;;;;;;;;;;;22.40;54.00;;;;;;516605;230;975;-73
2021/07/02 01:07:39;;;;;;;;;;;22.50;53.80;;;;;;516449;230;1048;-73
2021/07/02 01:09:41;;;;;;;;;;;22.50;53.90;;;;;;516318;230;1006;-73
2021/07/02 01:11:42;;;;;;;;;;;22.40;54.10;;;;;;516230;230;1045;-73
2021/07/02 01:13:44;;;;;;;;;;;22.40;54.00;;;;;;516262;231;1224;-73
2021/07/02 01:15:45;;;;;;;;;;;22.40;54.00;;;;;;516341;230;1062;-73
2021/07/02 01:17:46;;;;;;;;;;;22.40;53.90;;;;;;516299;231;2141;-73
2021/07/02 01:19:48;;;;;;;;;;;22.50;54.00;;;;;;516349;230;1166;-73
2021/07/02 01:21:49;;;;;;;;;;;22.40;54.00;;;;;;516286;230;1062;-73
2021/07/02 01:23:50;;;;;;;;;;;22.50;54.00;;;;;;516279;230;1018;-73
2021/07/02 01:25:52;;;;;;;;;;;22.50;53.90;;;;;;516250;231;996;-73
2021/07/02 01:27:53;;;;;;;;;;;22.50;53.80;;;;;;516376;230;1041;-73
2021/07/02 01:29:55;;;;;;;;;;;22.40;54.00;;;;;;516526;230;1003;-73
2021/07/02 01:31:56;;;;;;;;;;;22.40;54.00;;;;;;516244;231;1019;-73
2021/07/02 01:33:57;;;;;;;;;;;22.50;54.10;;;;;;516458;230;1116;-73
2021/07/02 01:35:58;;;;;;;;;;;22.40;54.00;;;;;;516363;230;947;-73
2021/07/02 01:38:00;;;;;;;;;;;22.50;53.90;;;;;;516320;230;2164;-73
2021/07/02 01:40:01;;;;;;;;;;;22.40;54.00;;;;;;516468;230;1049;-73
2021/07/02 01:42:02;;;;;;;;;;;22.40;54.10;;;;;;516484;230;1190;-73
2021/07/02 01:44:04;;;;;;;;;;;22.40;54.10;;;;;;516340;230;1014;-73
2021/07/02 01:46:05;;;;;;;;;;;22.40;54.00;;;;;;516326;230;1194;-73
2021/07/02 01:48:06;;;;;;;;;;;22.40;54.00;;;;;;516338;231;956;-73
2021/07/02 01:50:08;;;;;;;;;;;22.40;54.00;;;;;;516306;231;1201;-73
2021/07/02 01:52:09;;;;;;;;;;;22.40;54.00;;;;;;516271;231;1153;-73
2021/07/02 01:54:10;;;;;;;;;;;22.50;53.90;;;;;;516366;230;1051;-73
2021/07/02 01:56:12;;;;;;;;;;;22.50;54.00;;;;;;516228;231;1225;-73
2021/07/02 01:58:13;;;;;;;;;;;22.40;53.90;;;;;;516366;230;2168;-73
2021/07/02 02:00:14;;;;;;;;;;;22.50;53.80;;;;;;516289;230;1020;-73
2021/07/02 02:02:16;;;;;;;;;;;22.50;53.90;;;;;;516202;231;1053;-73
2021/07/02 02:04:19;;;;;;;;;;;22.40;53.90;;;;;;516368;230;1145;-73
2021/07/02 02:06:18;;;;;;;;;;;22.40;53.90;;;;;;516193;230;1375;-73
2021/07/02 02:08:20;;;;;;;;;;;22.60;53.60;;;;;;516372;230;1080;-73
2021/07/02 02:10:21;;;;;;;;;;;22.50;53.80;;;;;;516288;231;1024;-73
2021/07/02 02:12:22;;;;;;;;;;;22.50;53.80;;;;;;516328;230;1025;-73
2021/07/02 02:14:24;;;;;;;;;;;22.50;53.90;;;;;;516248;231;1140;-73
2021/07/02 02:16:25;;;;;;;;;;;22.50;53.80;;;;;;516337;230;1043;-73
2021/07/02 02:18:26;;;;;;;;;;;22.50;53.80;;;;;;516527;230;2173;-73
2021/07/02 02:20:28;;;;;;;;;;;22.50;53.80;;;;;;516452;230;1186;-73
2021/07/02 02:22:29;;;;;;;;;;;22.50;53.90;;;;;;516291;230;1138;-73
2021/07/02 02:24:30;;;;;;;;;;;22.50;53.80;;;;;;516436;230;1016;-73
2021/07/02 02:26:32;;;;;;;;;;;22.40;54.00;;;;;;516313;230;1069;-73
2021/07/02 02:28:33;;;;;;;;;;;22.40;54.00;;;;;;516362;231;1030;-73
2021/07/02 02:30:36;;;;;;;;;;;22.40;54.00;;;;;;516365;230;1152;-73
2021/07/02 02:32:39;;;;;;;;;;;22.40;54.00;;;;;;516435;230;1081;-73
2021/07/02 02:34:39;;;;;;;;;;;22.50;53.90;;;;;;516355;230;1359;-73
2021/07/02 02:36:40;;;;;;;;;;;22.50;53.90;;;;;;516344;230;1013;-73
2021/07/02 02:38:42;;;;;;;;;;;22.50;54.00;;;;;;516333;231;2172;-73
2021/07/02 02:40:43;;;;;;;;;;;22.40;54.00;;;;;;516395;230;1108;-73
2021/07/02 02:42:44;;;;;;;;;;;22.50;53.90;;;;;;516404;231;1056;-73
2021/07/02 02:44:46;;;;;;;;;;;22.50;53.80;;;;;;516361;230;1224;-73
2021/07/02 02:46:47;;;;;;;;;;;22.40;54.00;;;;;;516277;230;1103;-73
2021/07/02 02:48:48;;;;;;;;;;;22.50;53.80;;;;;;516381;230;945;-73
2021/07/02 02:50:50;;;;;;;;;;;22.40;54.00;;;;;;516333;230;1615;-73
2021/07/02 02:52:51;;;;;;;;;;;22.50;54.00;;;;;;516308;230;1099;-73
2021/07/02 02:54:52;;;;;;;;;;;22.50;54.00;;;;;;516478;230;1075;-73
2021/07/02 02:57:07;;;;;;;;;;;22.50;54.00;;;;;;516297;231;1092;-73
2021/07/02 02:59:07;;;;;;;;;;;22.50;53.90;;;;;;516253;230;2176;-73
2021/07/02 03:01:08;;;;;;;;;;;22.50;53.90;;;;;;516377;230;1028;-73
2021/07/02 03:03:10;;;;;;;;;;;22.50;53.80;;;;;;516451;230;1018;-73
2021/07/02 03:05:11;;;;;;;;;;;22.60;53.80;;;;;;516417;230;1159;-73
2021/07/02 03:07:12;;;;;;;;;;;22.60;53.80;;;;;;516255;230;1169;-73
2021/07/02 03:09:14;;;;;;;;;;;22.50;53.70;;;;;;516396;230;1038;-73
2021/07/02 03:11:18;;;;;;;;;;;22.50;53.70;;;;;;516367;230;1021;-73
2021/07/02 03:13:17;;;;;;;;;;;22.50;53.80;;;;;;516215;230;1417;-73
2021/07/02 03:15:18;;;;;;;;;;;22.50;53.90;;;;;;516294;231;1038;-73
2021/07/02 03:17:20;;;;;;;;;;;22.50;53.90;;;;;;516297;230;1038;-73
2021/07/02 03:19:21;;;;;;;;;;;22.50;53.90;;;;;;516352;230;2142;-73
2021/07/02 03:21:22;;;;;;;;;;;22.50;53.90;;;;;;516266;231;1186;-73
2021/07/02 03:23:24;;;;;;;;;;;22.50;53.90;;;;;;516771;230;1096;-73
2021/07/02 03:25:25;;;;;;;;;;;22.50;53.90;;;;;;516302;230;1041;-73
2021/07/02 03:27:26;;;;;;;;;;;22.50;53.90;;;;;;516225;231;1171;-73
2021/07/02 03:29:28;;;;;;;;;;;22.50;53.90;;;;;;516374;231;995;-73
2021/07/02 03:31:29;;;;;;;;;;;22.60;53.90;;;;;;516339;230;1202;-73
2021/07/02 03:33:30;;;;;;;;;;;22.50;53.90;;;;;;516313;231;1061;-73
2021/07/02 03:35:32;;;;;;;;;;;22.50;54.00;;;;;;516411;230;1123;-73
2021/07/02 03:37:33;;;;;;;;;;;22.50;54.00;;;;;;516331;230;1216;-73
2021/07/02 03:39:34;;;;;;;;;;;22.50;53.90;;;;;;516377;230;2184;-73
2021/07/02 03:41:36;;;;;;;;;;;22.60;53.70;;;;;;516312;230;1147;-73
2021/07/02 03:43:37;;;;;;;;;;;22.50;53.90;;;;;;516289;231;997;-73
2021/07/02 03:45:38;;;;;;;;;;;22.60;53.90;;;;;;516482;230;1070;-73
2021/07/02 03:47:39;;;;;;;;;;;22.50;53.80;;;;;;516298;230;1132;-73
2021/07/02 03:49:41;;;;;;;;;;;22.50;53.90;;;;;;516332;231;1108;-73
2021/07/02 03:51:44;;;;;;;;;;;22.50;54.00;;;;;;516241;230;1120;-73
2021/07/02 03:53:43;;;;;;;;;;;22.50;54.00;;;;;;516341;230;1418;-73
2021/07/02 03:55:45;;;;;;;;;;;22.50;54.00;;;;;;516376;230;1062;-73
2021/07/02 03:57:46;;;;;;;;;;;22.50;54.10;;;;;;516326;231;1013;-73
2021/07/02 03:59:47;;;;;;;;;;;22.50;54.00;;;;;;516413;230;2181;-73
2021/07/02 04:01:49;;;;;;;;;;;22.50;54.00;;;;;;516388;230;1016;-73
2021/07/02 04:03:50;;;;;;;;;;;22.50;54.00;;;;;;516289;230;1046;-73
2021/07/02 04:05:51;;;;;;;;;;;22.50;54.00;;;;;;516516;230;1150;-73
2021/07/02 04:07:53;;;;;;;;;;;22.80;53.50;;;;;;516240;230;1299;-73
2021/07/02 04:09:54;;;;;;;;;;;22.60;53.60;;;;;;516257;230;1092;-73
2021/07/02 04:11:55;;;;;;;;;;;22.50;53.80;;;;;;516343;230;1040;-73
2021/07/02 04:13:57;;;;;;;;;;;22.50;54.00;;;;;;516670;230;1039;-73
2021/07/02 04:15:58;;;;;;;;;;;22.50;54.10;;;;;;516244;231;1048;-73
2021/07/02 04:17:59;;;;;;;;;;;22.50;54.10;;;;;;516280;230;1041;-73
2021/07/02 04:20:01;;;;;;;;;;;22.50;54.20;;;;;;516345;230;2141;-73
2021/07/02 04:22:02;;;;;;;;;;;22.40;54.10;;;;;;516131;231;1182;-73
2021/07/02 04:24:03;;;;;;;;;;;22.60;54.00;;;;;;516245;230;1050;-73
2021/07/02 04:26:05;;;;;;;;;;;22.50;54.00;;;;;;516433;230;1037;-73
2021/07/02 04:28:06;;;;;;;;;;;22.50;54.10;;;;;;516219;231;1087;-73
2021/07/02 04:30:07;;;;;;;;;;;22.50;54.20;;;;;;516331;230;1034;-73
2021/07/02 04:32:09;;;;;;;;;;;22.50;54.20;;;;;;516134;231;1063;-73
2021/07/02 04:34:10;;;;;;;;;;;22.50;54.30;;;;;;516153;230;1045;-73
2021/07/02 04:36:11;;;;;;;;;;;22.50;54.20;;;;;;510182;230;1294;-73
2021/07/02 04:38:13;;;;;;;;;;;22.50;54.00;;;;;;513672;231;1071;-73
2021/07/02 04:40:14;;;;;;;;;;;22.50;54.00;;;;;;515211;231;2185;-73
2021/07/02 04:42:15;;;;;;;;;;;22.50;54.10;;;;;;516074;231;1043;-73
2021/07/02 04:44:17;;;;;;;;;;;22.50;54.10;;;;;;516304;230;945;-73
2021/07/02 04:46:18;;;;;;;;;;;22.60;54.10;;;;;;516062;230;1030;-73
2021/07/02 04:48:19;;;;;;;;;;;22.50;54.00;;;;;;516088;230;1024;-73
2021/07/02 04:50:20;;;;;;;;;;;22.50;54.10;;;;;;516096;231;1100;-73
2021/07/02 04:52:22;;;;;;;;;;;22.50;54.10;;;;;;516071;231;1182;-73
2021/07/02 04:54:23;;;;;;;;;;;22.60;54.10;;;;;;516291;230;1043;-73
2021/07/02 04:56:25;;;;;;;;;;;22.60;54.10;;;;;;516252;230;1058;-73
2021/07/02 04:58:26;;;;;;;;;;;22.50;54.10;;;;;;516170;230;996;-73
2021/07/02 05:00:28;;;;;;;;;;;22.50;54.20;;;;;;516060;230;2191;-73
2021/07/02 05:02:29;;;;;;;;;;;22.50;54.20;;;;;;515954;231;1203;-73
2021/07/02 05:04:30;;;;;;;;;;;22.50;54.20;;;;;;516112;230;1041;-73
2021/07/02 05:06:32;;;;;;;;;;;22.50;54.20;;;;;;516145;230;1083;-73
2021/07/02 05:08:33;;;;;;;;;;;22.60;54.00;;;;;;516238;230;1269;-73
2021/07/02 05:10:34;;;;;;;;;;;22.50;54.10;;;;;;516093;231;1062;-73
2021/07/02 05:12:36;;;;;;;;;;;22.50;54.30;;;;;;516056;231;1011;-73
2021/07/02 05:14:37;;;;;;;;;;;22.50;54.30;;;;;;516212;230;1141;-73
2021/07/02 05:16:38;;;;;;;;;;;22.50;54.20;;;;;;516163;230;1101;-73
2021/07/02 05:18:40;;;;;;;;;;;22.60;54.10;;;;;;516002;230;959;-72
2021/07/02 05:20:44;;;;;;;;;;;22.50;54.10;;;;;;516096;230;2172;-72
2021/07/02 05:22:43;;;;;;;;;;;22.60;54.20;;;;;;515861;230;1489;-72
2021/07/02 05:24:44;;;;;;;;;;;22.60;54.10;;;;;;516145;230;1042;-72
2021/07/02 05:26:46;;;;;;;;;;;22.50;54.10;;;;;;515895;231;1102;-72
2021/07/02 05:28:47;;;;;;;;;;;22.50;54.20;;;;;;516059;230;1829;-72
2021/07/02 05:30:48;;;;;;;;;;;22.60;54.20;;;;;;515943;230;1037;-72
2021/07/02 05:32:51;;;;;;;;;;;22.50;54.30;;;;;;515957;230;1063;-72
2021/07/02 05:34:51;;;;;;;;;;;22.50;54.30;;;;;;515928;231;1225;-72
2021/07/02 05:36:52;;;;;;;;;;;22.50;54.30;;;;;;515897;231;1172;-73
2021/07/02 05:38:54;;;;;;;;;;;22.50;54.40;;;;;;515912;230;1154;-72
2021/07/02 05:40:55;;;;;;;;;;;22.50;54.40;;;;;;515877;231;2172;-72
2021/07/02 05:42:56;;;;;;;;;;;22.50;54.40;;;;;;515958;230;1064;-72
2021/07/02 05:44:58;;;;;;;;;;;22.60;54.20;;;;;;515731;231;1031;-72
2021/07/02 05:46:59;;;;;;;;;;;22.60;54.20;;;;;;515853;231;1277;-72
2021/07/02 05:49:02;;;;;;;;;;;22.60;54.20;;;;;;515922;231;1115;-73
2021/07/02 05:51:02;;;;;;;;;;;22.60;54.20;;;;;;515836;230;1249;-73
2021/07/02 05:53:03;;;;;;;;;;;22.50;54.30;;;;;;515904;230;1273;-73
2021/07/02 05:55:04;;;;;;;;;;;22.60;54.30;;;;;;515982;230;1056;-73
2021/07/02 05:57:06;;;;;;;;;;;22.60;54.10;;;;;;515743;230;1385;-73
2021/07/02 05:59:07;;;;;;;;;;;22.60;54.20;;;;;;515899;230;1137;-73
2021/07/02 06:01:10;;;;;;;;;;;22.50;54.20;;;;;;515687;231;2184;-73
2021/07/02 06:03:10;;;;;;;;;;;22.60;54.20;;;;;;515516;230;1543;-73
2021/07/02 06:05:11;;;;;;;;;;;22.60;54.20;;;;;;515880;231;1163;-73
2021/07/02 06:07:12;;;;;;;;;;;22.60;54.10;;;;;;515796;230;1209;-73
2021/07/02 06:09:14;;;;;;;;;;;22.70;53.80;;;;;;515730;231;1168;-73
2021/07/02 06:11:15;;;;;;;;;;;22.70;54.00;;;;;;515761;230;1148;-73
2021/07/02 06:13:16;;;;;;;;;;;22.60;53.90;;;;;;515766;230;1107;-73
2021/07/02 06:15:18;;;;;;;;;;;22.60;54.00;;;;;;515738;230;1059;-73
2021/07/02 06:17:19;;;;;;;;;;;22.60;54.00;;;;;;515612;230;1189;-73
2021/07/02 06:19:20;;;;;;;;;;;22.70;54.10;;;;;;515665;230;2140;-73
2021/07/02 06:21:22;;;;;;;;;;;22.70;54.10;;;;;;515552;231;1246;-73
2021/07/02 06:23:23;;;;;;;;;;;22.70;54.20;;;;;;515784;230;1102;-73
2021/07/02 06:25:24;;;;;;;;;;;22.70;54.10;;;;;;515748;230;1102;-73
2021/07/02 06:27:26;;;;;;;;;;;22.80;54.00;;;;;;515681;231;1208;-73
2021/07/02 06:29:27;;;;;;;;;;;22.80;53.90;;;;;;515847;230;1251;-72
2021/07/02 06:31:29;;;;;;;;;;;22.90;54.00;;;;;;515707;231;1148;-72
2021/07/02 06:33:30;;;;;;;;;;;22.90;53.90;;;;;;515894;231;1135;-72
2021/07/02 06:35:31;;;;;;;;;;;23.00;53.90;;;;;;515829;230;1158;-73
2021/07/02 06:37:33;;;;;;;;;;;23.10;53.70;;;;;;515738;230;1166;-73
2021/07/02 06:39:34;;;;;;;;;;;23.20;53.70;;;;;;515801;230;2169;-73
2021/07/02 06:41:35;;;;;;;;;;;23.30;53.50;;;;;;515751;230;1123;-73
2021/07/02 06:43:37;;;;;;;;;;;23.10;53.80;;;;;;515720;230;1130;-73
2021/07/02 06:45:38;;;;;;;;;;;22.90;54.30;;;;;;515792;231;1089;-73
2021/07/02 06:47:39;;;;;;;;;;;22.80;54.50;;;;;;515644;230;1049;-73
2021/07/02 06:49:41;;;;;;;;;;;22.70;54.80;;;;;;515617;230;1183;-73
2021/07/02 06:51:42;;;;;;;;;;;22.70;55.00;;;;;;515583;231;1157;-73
2021/07/02 06:53:43;;;;;;;;;;;22.60;55.10;;;;;;515768;230;1214;-73
2021/07/02 06:55:45;;;;;;;;;;;22.50;55.30;;;;;;515417;231;1111;-73
2021/07/02 06:57:46;;;;;;;;;;;22.40;55.40;;;;;;515524;231;1215;-73
2021/07/02 06:59:47;;;;;;;;;;;22.30;55.40;;;;;;515494;231;2176;-73
2021/07/02 07:01:49;;;;;;;;;;;22.20;55.50;;;;;;515491;231;1457;-72
2021/07/02 07:03:50;;;;;;;;;;;22.10;55.90;;;;;;515523;230;1139;-73
2021/07/02 07:05:52;;;;;;;;;;;22.20;56.10;;;;;;515374;231;1055;-73
2021/07/02 07:07:53;;;;;;;;;;;22.30;55.90;;;;;;515360;231;1575;-73
2021/07/02 07:09:54;;;;;;;;;;;22.30;55.80;;;;;;515542;230;1212;-73
2021/07/02 07:11:56;;;;;;;;;;;22.30;55.80;;;;;;515785;230;1142;-73
2021/07/02 07:13:57;;;;;;;;;;;22.40;55.80;;;;;;515715;231;1081;-73
2021/07/02 07:15:58;;;;;;;;;;;22.40;55.80;;;;;;515527;231;1134;-73
2021/07/02 07:18:00;;;;;;;;;;;22.40;55.70;;;;;;514967;230;1032;-73
2021/07/02 07:20:01;;;;;;;;;;;22.50;55.60;;;;;;515248;231;2157;-73
2021/07/02 07:22:02;;;;;;;;;;;22.50;55.60;;;;;;515754;230;1064;-73
2021/07/02 07:24:04;;;;;;;;;;;22.50;55.50;;;;;;515652;230;1041;-73
2021/07/02 07:26:05;;;;;;;;;;;22.60;55.50;;;;;;515439;230;1088;-73
2021/07/02 07:28:06;;;;;;;;;;;22.60;55.40;;;;;;515396;231;1134;-73
2021/07/02 07:30:08;;;;;;;;;;;22.60;55.40;;;;;;515394;230;1178;-73
2021/07/02 07:32:09;;;;;;;;;;;22.60;55.30;;;;;;515506;230;1165;-73
2021/07/02 07:34:10;;;;;;;;;;;22.60;55.40;;;;;;515641;230;1062;-73
2021/07/02 07:36:15;;;;;;;;;;;22.70;55.40;;;;;;515373;230;1067;-73
2021/07/02 07:38:13;;;;;;;;;;;22.70;55.30;;;;;;514566;230;1230;-73
2021/07/02 07:40:14;;;;;;;;;;;22.80;55.30;;;;;;515596;230;2180;-73
2021/07/02 07:42:16;;;;;;;;;;;22.90;55.10;;;;;;515460;231;1103;-73
2021/07/02 07:44:17;;;;;;;;;;;23.00;54.90;;;;;;515678;230;1130;-73
2021/07/02 07:46:18;;;;;;;;;;;23.20;54.70;;;;;;515386;230;1061;-73
2021/07/02 07:48:20;;;;;;;;;;;23.30;54.40;;;;;;515439;230;1162;-73
2021/07/02 07:50:23;;;;;;;;;;;23.40;54.00;;;;;;516298;230;1054;-73
2021/07/02 07:52:36;;;;;;;;;;;23.00;54.70;;;;;;515996;230;2371;-73
2021/07/02 07:54:27;;;;;;;;;;;22.80;55.40;;;;;;514667;230;1287;-73
2021/07/02 07:56:30;;;;;;;;;;;22.70;55.80;;;;;;515443;230;1163;-73
2021/07/02 07:58:30;;;;;;;;;;;22.60;56.10;;;;;;515397;231;1296;-73
2021/07/02 08:00:31;;;;;;;;;;;22.50;56.30;;;;;;515456;230;2177;-72
2021/07/02 08:02:33;;;;;;;;;;;22.50;56.40;;;;;;515379;230;1286;-72
2021/07/02 08:04:34;;;;;;;;;;;22.50;56.40;;;;;;515493;231;1066;-73
2021/07/02 08:06:35;;;;;;;;;;;22.50;56.50;;;;;;515599;230;1118;-73
2021/07/02 08:08:37;;;;;;;;;;;22.50;56.50;;;;;;515590;231;1078;-73
2021/07/02 08:10:38;;;;;;;;;;;22.40;56.60;;;;;;515398;230;1138;-73
2021/07/02 08:12:39;;;;;;;;;;;22.50;56.50;;;;;;515360;230;1133;-73
2021/07/02 08:14:41;;;;;;;;;;;22.70;56.10;;;;;;516022;230;1046;-73
2021/07/02 08:16:42;;;;;;;;;;;22.80;55.20;;;;;;515470;231;1238;-73
2021/07/02 08:18:43;;;;;;;;;;;23.00;54.70;;;;;;516026;230;792;-73
2021/07/02 08:20:45;;;;;;;;;;;23.10;54.40;;;;;;515535;230;2188;-73
2021/07/02 08:22:46;;;;;;;;;;;23.20;53.90;;;;;;515307;231;1079;-73
2021/07/02 08:24:47;;;;;;;;;;;23.20;53.80;;;;;;515399;231;1184;-73
2021/07/02 08:26:55;;;;;;;;;;;23.00;53.90;;;;;;515125;231;1056;-73
2021/07/02 08:31:09;;;;;;;;;;;23.00;54.00;;;;;;515293;230;1107;-73
2021/07/02 08:33:16;;;;;;;;;;;22.90;53.90;;;;;;515272;230;1235;-73
2021/07/02 08:35:14;;;;;;;;;;;22.90;53.90;;;;;;515015;230;1365;-73
2021/07/02 08:37:13;;;;;;;;;;;22.80;54.00;;;;;;515082;230;1270;-73
2021/07/02 08:39:15;;;;;;;;;;;22.80;54.10;;;;;;515245;231;1183;-73
2021/07/02 08:41:16;;;;;;;;;;;22.70;54.10;;;;;;515290;230;2161;-73
2021/07/02 08:43:17;;;;;;;;;;;22.70;54.10;;;;;;515192;231;1068;-73
2021/07/02 08:45:19;;;;;;;;;;;22.60;54.10;;;;;;515274;230;1052;-73
2021/07/02 08:47:20;;;;;;;;;;;22.60;54.10;;;;;;515262;231;1154;-73
2021/07/02 08:49:22;;;;;;;;;;;22.60;54.10;;;;;;515382;230;1090;-73
2021/07/02 08:51:23;;;;;;;;;;;22.50;54.20;;;;;;514952;231;1180;-73
2021/07/02 08:53:24;;;;;;;;;;;22.50;54.20;;;;;;515238;230;1167;-73
2021/07/02 08:55:26;;;;;;;;;;;22.50;54.30;;;;;;515410;230;1190;-73
2021/07/02 08:57:27;;;;;;;;;;;22.50;54.30;;;;;;515367;230;1137;-73
2021/07/02 08:59:28;;;;;;;;;;;22.50;54.30;;;;;;515309;230;1037;-73
2021/07/02 09:01:30;;;;;;;;;;;22.50;54.20;;;;;;515285;231;2185;-73
2021/07/02 09:03:31;;;;;;;;;;;22.50;54.20;;;;;;515303;231;1105;-73
2021/07/02 09:05:33;;;;;;;;;;;22.50;54.20;;;;;;515335;230;1101;-73
2021/07/02 09:07:34;;;;;;;;;;;22.50;54.20;;;;;;515339;230;1289;-73
2021/07/02 09:09:36;;;;;;;;;;;22.40;54.10;;;;;;515411;230;1103;-73
2021/07/02 09:11:37;;;;;;;;;;;22.40;54.30;;;;;;515296;231;1158;-73
2021/07/02 09:13:39;;;;;;;;;;;22.50;54.00;;;;;;515337;231;1067;-73
2021/07/02 09:15:40;;;;;;;;;;;22.50;54.00;;;;;;515390;231;1054;-73
2021/07/02 09:17:41;;;;;;;;;;;22.50;54.10;;;;;;515343;231;1095;-73
2021/07/02 09:19:43;;;;;;;;;;;22.40;54.10;;;;;;515593;230;1129;-73
2021/07/02 09:21:44;;;;;;;;;;;22.50;54.10;;;;;;515445;230;2125;-73
2021/07/02 09:23:45;;;;;;;;;;;22.50;53.90;;;;;;515511;230;1100;-73
2021/07/02 09:25:47;;;;;;;;;;;22.50;54.00;;;;;;515369;230;1180;-73
2021/07/02 09:27:48;;;;;;;;;;;22.50;54.00;;;;;;515360;231;1078;-73
2021/07/02 09:29:49;;;;;;;;;;;22.50;54.00;;;;;;515436;231;1048;-73
2021/07/02 09:31:51;;;;;;;;;;;22.50;53.90;;;;;;515455;230;1098;-73
2021/07/02 09:33:52;;;;;;;;;;;22.60;53.70;;;;;;515553;231;1173;-73
2021/07/02 09:35:55;;;;;;;;;;;22.50;53.70;;;;;;515448;230;1071;-73
2021/07/02 09:37:55;;;;;;;;;;;22.60;53.70;;;;;;515506;230;1283;-73
2021/07/02 09:39:56;;;;;;;;;;;22.60;53.70;;;;;;515648;230;1288;-73
2021/07/02 09:41:58;;;;;;;;;;;22.50;53.70;;;;;;515354;231;2461;-73
2021/07/02 09:43:59;;;;;;;;;;;22.50;53.90;;;;;;515448;230;1065;-73
2021/07/02 09:46:02;;;;;;;;;;;22.50;53.80;;;;;;515530;230;1110;-73
2021/07/02 09:48:02;;;;;;;;;;;22.50;53.90;;;;;;515388;230;1330;-73
2021/07/02 09:50:03;;;;;;;;;;;22.40;53.80;;;;;;515543;230;1071;-73
2021/07/02 09:52:05;;;;;;;;;;;22.50;53.70;;;;;;515538;230;1097;-73
2021/07/02 09:54:06;;;;;;;;;;;22.50;53.80;;;;;;515555;230;1133;-73
2021/07/02 09:56:09;;;;;;;;;;;22.50;53.70;;;;;;515592;230;1078;-73
2021/07/02 09:58:09;;;;;;;;;;;22.50;53.60;;;;;;515425;230;1310;-73
2021/07/02 10:00:10;;;;;;;;;;;22.50;53.50;;;;;;515539;231;1040;-73
2021/07/02 10:02:11;;;;;;;;;;;22.60;53.40;;;;;;515516;231;2176;-73
2021/07/02 10:04:13;;;;;;;;;;;22.60;53.30;;;;;;515580;230;1134;-73
2021/07/02 10:06:14;;;;;;;;;;;22.70;53.20;;;;;;515438;230;1075;-73
2021/07/02 10:08:15;;;;;;;;;;;22.60;53.40;;;;;;515374;230;1118;-73
2021/07/02 10:10:17;;;;;;;;;;;22.60;53.50;;;;;;515440;230;1169;-73
2021/07/02 10:12:18;;;;;;;;;;;22.70;53.20;;;;;;515480;231;1118;-72
2021/07/02 10:14:20;;;;;;;;;;;22.70;53.10;;;;;;515530;230;1099;-72
2021/07/02 10:16:22;;;;;;;;;;;22.60;53.30;;;;;;515560;230;1180;-73
2021/07/02 10:18:22;;;;;;;;;;;22.60;53.30;;;;;;515534;230;1249;-73
2021/07/02 10:20:24;;;;;;;;;;;22.70;53.30;;;;;;515468;230;1178;-73
2021/07/02 10:22:25;;;;;;;;;;;22.60;53.40;;;;;;515564;231;2129;-73
2021/07/02 10:24:26;;;;;;;;;;;22.70;53.30;;;;;;515779;230;1140;-73
2021/07/02 10:26:28;;;;;;;;;;;22.70;53.30;;;;;;515638;231;1089;-73
2021/07/02 10:28:30;;;;;;;;;;;22.70;53.30;;;;;;515604;231;1105;-73
2021/07/02 10:30:30;;;;;;;;;;;22.70;53.20;;;;;;515531;230;1948;-73
2021/07/02 10:32:32;;;;;;;;;;;22.70;53.10;;;;;;515466;231;1059;-73
2021/07/02 10:34:33;;;;;;;;;;;22.70;53.00;;;;;;515591;230;1072;-73
2021/07/02 10:36:35;;;;;;;;;;;22.70;53.10;;;;;;515608;230;1067;-73
2021/07/02 10:38:36;;;;;;;;;;;22.60;53.30;;;;;;515672;230;1040;-73
2021/07/02 10:40:37;;;;;;;;;;;22.70;53.20;;;;;;515544;231;1130;-73
2021/07/02 10:42:38;;;;;;;;;;;22.70;53.20;;;;;;515337;230;2192;-73
2021/07/02 10:44:40;;;;;;;;;;;22.70;52.90;;;;;;515496;230;1067;-73
2021/07/02 10:46:41;;;;;;;;;;;22.60;53.00;;;;;;515479;230;1080;-73
2021/07/02 10:48:42;;;;;;;;;;;22.60;53.10;;;;;;515550;230;1026;-73
2021/07/02 10:50:44;;;;;;;;;;;22.60;53.10;;;;;;515520;231;1059;-73
2021/07/02 10:52:45;;;;;;;;;;;22.70;53.00;;;;;;515630;230;1147;-73
2021/07/02 10:54:47;;;;;;;;;;;22.70;53.00;;;;;;515569;231;1191;-73
2021/07/02 10:56:48;;;;;;;;;;;22.60;52.80;;;;;;515380;230;1203;-73
2021/07/02 10:58:49;;;;;;;;;;;22.70;52.50;;;;;;515475;230;1038;-73
2021/07/02 11:00:50;;;;;;;;;;;22.60;52.70;;;;;;515522;231;1093;-73
2021/07/02 11:02:52;;;;;;;;;;;22.70;52.50;;;;;;515641;230;2160;-73
2021/07/02 11:04:53;;;;;;;;;;;22.70;52.60;;;;;;515667;231;1102;-73
2021/07/02 11:06:54;;;;;;;;;;;22.70;52.50;;;;;;515565;231;1029;-73
2021/07/02 11:08:56;;;;;;;;;;;22.60;52.40;;;;;;515650;230;1127;-73
2021/07/02 11:10:57;;;;;;;;;;;22.60;52.50;;;;;;515671;230;1167;-73
2021/07/02 11:12:59;;;;;;;;;;;22.70;52.00;;;;;;515652;230;1065;-73
2021/07/02 11:15:02;;;;;;;;;;;22.70;52.00;;;;;;515641;230;1191;-73
2021/07/02 11:17:02;;;;;;;;;;;22.80;52.10;;;;;;515523;231;1346;-73
2021/07/02 11:19:03;;;;;;;;;;;22.70;52.00;;;;;;515656;230;1047;-73
2021/07/02 11:21:04;;;;;;;;;;;22.60;52.00;;;;;;515607;230;2125;-73
2021/07/02 11:23:06;;;;;;;;;;;22.60;52.00;;;;;;515747;230;1071;-73
2021/07/02 11:25:07;;;;;;;;;;;22.70;52.10;;;;;;515667;231;1144;-73
2021/07/02 11:27:09;;;;;;;;;;;22.70;52.10;;;;;;515542;231;1047;-73
2021/07/02 11:29:10;;;;;;;;;;;22.60;52.00;;;;;;515630;230;1053;-73
2021/07/02 11:31:13;;;;;;;;;;;22.70;52.00;;;;;;515431;231;1042;-73
2021/07/02 11:33:13;;;;;;;;;;;22.60;51.80;;;;;;515408;230;1348;-73
2021/07/02 11:35:14;;;;;;;;;;;22.60;51.80;;;;;;515328;230;1091;-73
2021/07/02 11:39:53;;;;;;;;;;;22.60;51.60;;;;;;515564;231;1022;-73
2021/07/02 11:41:55;;;;;;;;;;;22.70;51.60;;;;;;515604;230;2164;-73
2021/07/02 11:43:56;;;;;;;;;;;22.70;51.50;;;;;;514724;230;1224;-73
2021/07/02 11:45:58;;;;;;;;;;;22.70;51.40;;;;;;515524;230;1212;-73
2021/07/02 11:47:59;;;;;;;;;;;22.70;51.40;;;;;;515638;231;1066;-73
2021/07/02 11:50:01;;;;;;;;;;;22.70;51.50;;;;;;515693;230;1050;-73
2021/07/02 11:52:02;;;;;;;;;;;22.70;51.50;;;;;;515713;230;1073;-73
2021/07/02 11:54:03;;;;;;;;;;;22.70;51.40;;;;;;515507;231;1147;-73
2021/07/02 11:56:05;;;;;;;;;;;22.70;51.30;;;;;;511185;231;1325;-73
2021/07/02 11:58:06;;;;;;;;;;;22.70;51.40;;;;;;511751;231;1049;-73
2021/07/02 12:00:07;;;;;;;;;;;22.70;51.40;;;;;;515484;231;1050;-73
2021/07/02 12:02:09;;;;;;;;;;;22.70;51.40;;;;;;515443;230;2176;-73